Time;durP1;ratioP1;P1;durP2;ratioP2;P2;SDS_P1;SDS_P2;PMS_P1;PMS_P2;Temp;Humidity;BMP_temperature;BMP_pressure;BME280_temperature;BME280_humidity;BME280_pressure;Samples;Min_cycle;Max_cycle;Signal;HPM_P1;HPM_P2
2023/12/10 00:00:55;;;;;;;26.83;4.78;;;7.50;99.90;;;;;;6189632;23;20048;-79
2023/12/10 00:03:21;;;;;;;30.88;5.32;;;7.50;99.90;;;;;;6189532;23;20056;-80
2023/12/10 00:05:47;;;;;;;25.05;4.60;;;7.50;99.90;;;;;;6189373;23;20012;-80
2023/12/10 00:08:13;;;;;;;33.00;5.00;;;7.50;99.90;;;;;;6189416;23;20096;-80
2023/12/10 00:10:42;;;;;;;27.58;5.20;;;7.60;99.90;;;;;;6189466;23;20013;-80
2023/12/10 00:13:09;;;;;;;25.95;4.00;;;7.60;99.90;;;;;;6189560;23;20020;-79
2023/12/10 00:15:38;;;;;;;32.33;5.95;;;7.60;99.90;;;;;;6189392;23;20008;-79
2023/12/10 00:18:05;;;;;;;26.02;4.75;;;7.60;99.90;;;;;;6189290;23;20021;-79
2023/12/10 00:20:31;;;;;;;24.73;4.63;;;7.60;99.90;;;;;;6189428;23;20017;-79
2023/12/10 00:22:56;;;;;;;29.77;4.93;;;7.60;99.90;;;;;;6189134;23;20079;-79
2023/12/10 00:25:26;;;;;;;27.42;5.68;;;7.70;99.90;;;;;;6216427;23;20088;-79
2023/12/10 00:27:52;;;;;;;32.17;4.45;;;7.70;99.90;;;;;;6189474;23;20008;-79
2023/12/10 00:30:17;;;;;;;32.25;4.88;;;7.70;99.90;;;;;;6216218;23;20092;-79
2023/12/10 00:32:43;;;;;;;23.00;4.35;;;7.80;99.90;;;;;;6215881;23;20051;-79
2023/12/10 00:35:09;;;;;;;32.65;5.30;;;7.80;99.90;;;;;;6189082;23;20429;-80
2023/12/10 00:37:34;;;;;;;28.58;4.72;;;7.90;99.90;;;;;;6189420;23;20318;-79
2023/12/10 00:40:00;;;;;;;22.08;4.32;;;7.80;99.90;;;;;;6216355;23;20440;-80
2023/12/10 00:42:26;;;;;;;25.70;5.05;;;7.80;99.90;;;;;;6216233;23;20012;-79
2023/12/10 00:44:52;;;;;;;31.52;4.78;;;7.80;99.90;;;;;;6216236;23;20328;-80
2023/12/10 00:47:51;;;;;;;28.70;5.43;;;7.80;99.90;;;;;;6189381;23;20341;-80
2023/12/10 00:50:18;;;;;;;31.00;5.15;;;7.80;99.90;;;;;;6216299;23;20063;-79
2023/12/10 00:52:43;;;;;;;19.02;3.72;;;7.80;99.90;;;;;;6189246;23;20052;-79
2023/12/10 00:55:10;;;;;;;22.05;3.40;;;7.80;99.90;;;;;;6189373;23;20027;-79
2023/12/10 00:57:35;;;;;;;25.13;5.40;;;7.80;99.90;;;;;;6189275;23;20024;-79
2023/12/10 01:00:01;;;;;;;27.70;3.55;;;7.80;99.90;;;;;;6189265;23;20017;-79
2023/12/10 01:02:27;;;;;;;28.85;3.75;;;7.80;99.90;;;;;;6189337;23;20027;-79
2023/12/10 01:04:52;;;;;;;33.25;4.32;;;7.70;99.90;;;;;;6189325;23;20043;-79
2023/12/10 01:07:18;;;;;;;26.98;5.28;;;7.70;99.90;;;;;;6215866;23;20028;-79
2023/12/10 01:09:43;;;;;;;21.15;3.13;;;7.70;99.90;;;;;;6189280;23;20016;-79
2023/12/10 01:12:12;;;;;;;21.20;3.80;;;7.70;99.90;;;;;;6189153;23;20337;-79
2023/12/10 01:14:38;;;;;;;29.48;5.28;;;7.70;99.90;;;;;;6189167;23;20020;-79
2023/12/10 01:17:04;;;;;;;21.33;4.45;;;7.70;99.90;;;;;;6189094;23;20023;-79
2023/12/10 01:19:29;;;;;;;22.73;4.18;;;7.60;99.90;;;;;;6189281;23;20044;-79
2023/12/10 01:21:57;;;;;;;32.28;4.13;;;7.60;99.90;;;;;;6189048;23;20075;-80
2023/12/10 01:24:22;;;;;;;18.50;4.28;;;7.60;99.90;;;;;;6189103;23;20326;-79
2023/12/10 01:26:48;;;;;;;30.67;4.15;;;7.60;99.90;;;;;;6189227;23;20027;-80
2023/12/10 01:29:15;;;;;;;26.17;4.10;;;7.50;99.90;;;;;;6189104;23;20017;-80
2023/12/10 01:31:41;;;;;;;22.70;3.75;;;7.50;99.90;;;;;;6215902;23;20357;-80
2023/12/10 01:34:09;;;;;;;24.65;3.78;;;7.50;99.90;;;;;;6189016;23;20016;-80
2023/12/10 01:36:35;;;;;;;28.00;3.97;;;7.50;99.90;;;;;;6215711;23;20448;-80
2023/12/10 01:39:00;;;;;;;31.48;4.63;;;7.40;99.90;;;;;;6216044;23;20064;-80
2023/12/10 01:41:26;;;;;;;21.25;3.33;;;7.50;99.90;;;;;;6189102;23;20017;-80
2023/12/10 01:43:52;;;;;;;23.20;4.90;;;7.40;99.90;;;;;;6189078;23;20062;-80
2023/12/10 01:46:17;;;;;;;24.40;4.47;;;7.50;99.90;;;;;;6189412;23;20027;-80
2023/12/10 01:48:45;;;;;;;23.65;4.53;;;7.40;99.90;;;;;;6217782;23;20429;-80
2023/12/10 01:51:11;;;;;;;31.17;4.95;;;7.40;99.90;;;;;;6217645;23;20020;-80
2023/12/10 01:53:38;;;;;;;24.92;4.68;;;7.40;99.90;;;;;;6190886;23;20027;-80
2023/12/10 01:56:07;;;;;;;25.75;4.15;;;7.40;99.90;;;;;;6190847;23;20393;-80
2023/12/10 01:58:34;;;;;;;29.00;4.25;;;7.40;99.90;;;;;;6190743;23;20394;-79
2023/12/10 02:01:00;;;;;;;30.17;5.55;;;7.40;99.90;;;;;;6190639;23;20088;-79
2023/12/10 02:03:27;;;;;;;29.70;4.68;;;7.40;99.90;;;;;;6190656;23;20075;-79
2023/12/10 02:05:52;;;;;;;29.27;5.25;;;7.40;99.90;;;;;;6190749;23;20074;-79
2023/12/10 02:08:19;;;;;;;31.90;5.75;;;7.40;99.90;;;;;;6190944;23;20052;-79
2023/12/10 02:10:45;;;;;;;25.42;4.00;;;7.40;99.90;;;;;;6190563;23;20020;-79
2023/12/10 02:13:11;;;;;;;22.65;4.47;;;7.40;99.90;;;;;;6190634;23;20026;-79
2023/12/10 02:15:37;;;;;;;26.08;4.60;;;7.40;99.90;;;;;;6190437;23;20009;-79
2023/12/10 02:18:02;;;;;;;22.10;4.50;;;7.40;99.90;;;;;;6190575;23;20412;-80
2023/12/10 02:20:28;;;;;;;27.90;4.10;;;7.40;99.90;;;;;;6190565;23;20024;-80
2023/12/10 02:23:10;;;;;;;22.15;3.83;;;7.40;99.90;;;;;;6190377;23;20128;-80
2023/12/10 02:25:39;;;;;;;16.98;5.32;;;7.40;99.90;;;;;;6190430;23;20016;-80
2023/12/10 02:28:09;;;;;;;21.50;3.80;;;7.40;99.90;;;;;;6190492;23;20534;-79
2023/12/10 02:30:35;;;;;;;19.85;3.13;;;7.40;99.90;;;;;;6190396;23;20008;-80
2023/12/10 02:33:01;;;;;;;21.27;2.92;;;7.40;99.90;;;;;;6190487;23;20356;-80
2023/12/10 02:35:27;;;;;;;23.40;3.78;;;7.30;99.90;;;;;;6190415;23;20017;-80
2023/12/10 02:37:53;;;;;;;18.90;2.88;;;7.40;99.90;;;;;;6190407;23;20021;-80
2023/12/10 02:40:19;;;;;;;11.32;3.25;;;7.30;99.90;;;;;;6217344;23;20059;-80
2023/12/10 02:42:45;;;;;;;18.17;2.60;;;7.30;99.90;;;;;;6190357;23;20017;-79
2023/12/10 02:45:11;;;;;;;13.18;3.08;;;7.30;99.90;;;;;;6190281;23;20028;-80
2023/12/10 02:47:37;;;;;;;13.68;2.92;;;7.30;99.90;;;;;;6190020;23;20048;-80
2023/12/10 02:50:03;;;;;;;18.55;3.80;;;7.40;99.90;;;;;;6190290;23;20020;-80
2023/12/10 02:52:32;;;;;;;15.45;3.85;;;7.40;99.90;;;;;;6190025;23;20028;-80
2023/12/10 02:54:57;;;;;;;21.13;3.38;;;7.30;99.90;;;;;;6190195;23;20096;-80
2023/12/10 02:57:23;;;;;;;22.10;3.20;;;7.40;99.90;;;;;;6190050;23;20409;-80
2023/12/10 02:59:48;;;;;;;21.45;2.90;;;7.30;99.90;;;;;;6190150;23;20016;-80
2023/12/10 03:02:14;;;;;;;14.35;2.92;;;7.30;99.90;;;;;;6190124;23;20023;-80
2023/12/10 03:04:40;;;;;;;12.35;2.67;;;7.30;99.90;;;;;;6190100;23;20027;-80
2023/12/10 03:07:05;;;;;;;13.18;2.60;;;7.30;99.90;;;;;;6190165;23;20437;-80
2023/12/10 03:09:31;;;;;;;12.30;2.13;;;7.30;99.90;;;;;;6190151;23;20401;-81
2023/12/10 03:11:57;;;;;;;9.93;1.77;;;7.40;99.90;;;;;;6190026;23;20016;-81
2023/12/10 03:14:22;;;;;;;16.38;2.33;;;7.30;99.90;;;;;;6190099;23;20021;-81
2023/12/10 03:16:48;;;;;;;12.40;2.03;;;7.30;99.90;;;;;;6216704;23;20078;-81
2023/12/10 03:19:13;;;;;;;9.77;2.13;;;7.30;99.90;;;;;;6190091;23;20012;-81
2023/12/10 03:21:39;;;;;;;15.30;2.38;;;7.30;99.90;;;;;;6189724;23;20095;-81
2023/12/10 03:24:05;;;;;;;14.25;2.08;;;7.30;99.90;;;;;;6216869;23;20056;-81
2023/12/10 03:26:30;;;;;;;12.95;2.58;;;7.30;99.90;;;;;;6216488;23;20062;-81
2023/12/10 03:28:56;;;;;;;15.52;2.45;;;7.30;99.90;;;;;;6189863;23;20024;-81
2023/12/10 03:31:21;;;;;;;15.00;2.30;;;7.30;99.90;;;;;;6216486;23;20051;-81
2023/12/10 03:33:50;;;;;;;16.75;1.75;;;7.30;99.90;;;;;;6189877;23;20509;-81
2023/12/10 03:36:16;;;;;;;11.70;2.70;;;7.30;99.90;;;;;;6216585;23;20080;-81
2023/12/10 03:38:41;;;;;;;9.85;1.73;;;7.30;99.90;;;;;;6189763;23;20018;-82
2023/12/10 03:41:07;;;;;;;12.75;2.20;;;7.30;99.90;;;;;;6189776;23;20434;-82
2023/12/10 03:43:32;;;;;;;12.00;2.00;;;7.30;99.90;;;;;;6189731;23;20027;-82
2023/12/10 03:45:58;;;;;;;12.88;2.22;;;7.30;99.90;;;;;;6189747;23;20048;-81
2023/12/10 03:48:24;;;;;;;10.13;1.90;;;7.30;99.90;;;;;;6189815;23;20024;-82
2023/12/10 03:50:51;;;;;;;12.63;2.38;;;7.30;99.90;;;;;;6216523;23;20016;-81
2023/12/10 03:53:17;;;;;;;14.05;1.98;;;7.30;99.90;;;;;;6189735;23;20020;-81
2023/12/10 03:55:42;;;;;;;14.27;2.53;;;7.40;99.90;;;;;;6189696;23;20024;-81
2023/12/10 03:58:08;;;;;;;14.98;2.92;;;7.40;99.90;;;;;;6216639;23;20013;-81
2023/12/10 04:00:33;;;;;;;12.93;2.53;;;7.40;99.90;;;;;;6189681;23;20017;-81
2023/12/10 04:02:59;;;;;;;17.42;2.72;;;7.50;99.90;;;;;;6189604;23;20025;-81
2023/12/10 04:05:27;;;;;;;17.85;2.08;;;7.50;99.90;;;;;;6189648;23;20016;-81
2023/12/10 04:07:53;;;;;;;10.80;1.60;;;7.50;99.90;;;;;;6189547;23;20066;-81
2023/12/10 04:10:18;;;;;;;17.55;2.22;;;7.50;99.90;;;;;;6189179;23;20020;-81
2023/12/10 04:12:44;;;;;;;13.73;2.30;;;7.60;99.90;;;;;;6189580;23;20028;-81
2023/12/10 04:15:10;;;;;;;14.65;3.00;;;7.60;99.90;;;;;;6189579;23;20012;-81
2023/12/10 04:17:36;;;;;;;15.43;2.78;;;7.60;99.90;;;;;;6216361;23;20023;-81
2023/12/10 04:20:03;;;;;;;15.38;2.55;;;7.60;99.90;;;;;;6189391;23;20008;-81
2023/12/10 04:22:28;;;;;;;12.82;2.92;;;7.70;99.90;;;;;;6215858;23;20095;-81
2023/12/10 04:24:54;;;;;;;20.77;3.25;;;7.80;99.90;;;;;;6189523;23;20059;-81
2023/12/10 04:27:22;;;;;;;18.25;3.45;;;7.70;99.90;;;;;;6189517;23;20013;-81
2023/12/10 04:29:48;;;;;;;23.10;3.03;;;7.80;99.90;;;;;;6189495;23;20017;-81
2023/12/10 04:32:14;;;;;;;18.55;3.25;;;7.80;99.90;;;;;;6189470;23;20108;-80
2023/12/10 04:34:39;;;;;;;14.82;2.35;;;7.80;99.90;;;;;;6216435;23;20016;-81
2023/12/10 04:37:05;;;;;;;22.02;2.65;;;7.80;99.90;;;;;;6189497;23;20464;-81
2023/12/10 04:39:31;;;;;;;20.42;3.00;;;7.70;99.90;;;;;;6189495;23;20029;-81
2023/12/10 04:41:56;;;;;;;17.02;2.78;;;7.70;99.90;;;;;;6189456;23;20459;-80
2023/12/10 04:44:22;;;;;;;20.35;3.53;;;7.70;99.90;;;;;;6189469;23;20017;-80
2023/12/10 04:46:48;;;;;;;23.75;3.40;;;7.70;99.90;;;;;;6189415;23;20021;-80
2023/12/10 04:49:16;;;;;;;21.98;3.25;;;7.70;99.90;;;;;;6189331;23;20040;-80
2023/12/10 04:51:42;;;;;;;25.58;3.33;;;7.80;99.90;;;;;;6189254;23;20017;-81
2023/12/10 04:54:07;;;;;;;21.83;3.28;;;7.70;99.90;;;;;;6188460;23;20025;-80
2023/12/10 04:56:33;;;;;;;20.90;3.00;;;7.70;99.90;;;;;;6189298;23;20012;-80
2023/12/10 04:58:59;;;;;;;26.60;3.38;;;7.80;99.90;;;;;;6189286;23;20084;-81
2023/12/10 05:01:25;;;;;;;19.70;2.45;;;7.70;99.90;;;;;;6189349;23;20048;-81
2023/12/10 05:03:51;;;;;;;18.17;3.17;;;7.70;99.90;;;;;;6215914;23;20022;-80
2023/12/10 05:06:16;;;;;;;19.85;3.83;;;7.70;99.90;;;;;;6216245;23;20008;-80
2023/12/10 05:08:42;;;;;;;18.48;2.95;;;7.70;99.90;;;;;;6189257;23;20322;-81
2023/12/10 05:11:08;;;;;;;21.60;3.15;;;7.70;99.90;;;;;;6189161;23;20345;-80
2023/12/10 05:13:34;;;;;;;24.17;3.75;;;7.70;99.90;;;;;;6189238;23;20396;-80
2023/12/10 05:15:59;;;;;;;18.15;2.55;;;7.60;99.90;;;;;;6189292;23;20017;-80
2023/12/10 05:18:25;;;;;;;15.02;2.50;;;7.60;99.90;;;;;;6216105;23;20013;-80
2023/12/10 05:20:51;;;;;;;24.20;2.85;;;7.60;99.90;;;;;;6190089;23;20021;-80
2023/12/10 05:23:16;;;;;;;20.00;2.95;;;7.60;99.90;;;;;;6190883;23;20021;-80
2023/12/10 05:25:42;;;;;;;29.80;4.40;;;7.60;99.90;;;;;;6191117;23;20016;-80
2023/12/10 05:28:08;;;;;;;29.95;6.63;;;7.60;99.90;;;;;;6191151;23;20099;-80
2023/12/10 05:30:33;;;;;;;21.35;2.67;;;7.60;99.90;;;;;;6190755;23;20017;-80
2023/12/10 05:32:59;;;;;;;29.80;4.53;;;7.60;99.90;;;;;;6191013;23;20381;-80
2023/12/10 05:35:24;;;;;;;18.27;2.65;;;7.60;99.90;;;;;;6191051;23;20012;-80
2023/12/10 05:37:50;;;;;;;31.15;4.32;;;7.60;99.90;;;;;;6190984;23;20028;-79
2023/12/10 05:40:16;;;;;;;26.02;3.97;;;7.50;99.90;;;;;;6190906;23;20463;-80
2023/12/10 05:42:41;;;;;;;26.67;3.63;;;7.50;99.90;;;;;;6217855;23;20024;-79
2023/12/10 05:45:07;;;;;;;25.45;4.47;;;7.50;99.90;;;;;;6190884;23;20020;-79
2023/12/10 05:47:33;;;;;;;30.23;3.88;;;7.50;99.90;;;;;;6190878;23;20466;-79
2023/12/10 05:49:59;;;;;;;22.90;3.45;;;7.50;99.90;;;;;;6190877;23;20017;-79
2023/12/10 05:52:24;;;;;;;25.25;4.65;;;7.50;99.90;;;;;;6190753;23;20020;-79
2023/12/10 05:54:51;;;;;;;27.35;4.20;;;7.50;99.90;;;;;;6190775;23;20016;-79
2023/12/10 05:57:16;;;;;;;28.42;3.67;;;7.50;99.90;;;;;;6190851;23;20083;-79
2023/12/10 05:59:43;;;;;;;33.45;5.70;;;7.50;99.90;;;;;;6217412;23;20364;-79
2023/12/10 06:02:08;;;;;;;26.48;3.47;;;7.50;99.90;;;;;;6217448;23;20344;-79
2023/12/10 06:04:34;;;;;;;30.95;3.90;;;7.50;99.90;;;;;;6190670;23;20496;-79
2023/12/10 06:07:00;;;;;;;31.75;4.22;;;7.50;99.90;;;;;;6190728;23;20016;-79
2023/12/10 06:09:25;;;;;;;23.50;3.80;;;7.50;99.90;;;;;;6190773;23;20008;-79
2023/12/10 06:11:53;;;;;;;29.65;4.60;;;7.50;99.90;;;;;;6190713;23;20028;-79
2023/12/10 06:14:19;;;;;;;27.23;4.57;;;7.50;99.90;;;;;;6190710;23;20029;-79
2023/12/10 06:16:44;;;;;;;29.02;4.45;;;7.60;99.90;;;;;;6190652;23;20059;-79
2023/12/10 06:19:10;;;;;;;30.08;5.85;;;7.60;99.90;;;;;;6190716;23;20016;-79
2023/12/10 06:21:37;;;;;;;28.10;5.35;;;7.60;99.90;;;;;;6190358;23;20024;-80
2023/12/10 06:24:04;;;;;;;28.38;4.10;;;7.60;99.90;;;;;;6190591;23;20020;-79
2023/12/10 06:26:30;;;;;;;29.10;4.85;;;7.60;99.90;;;;;;6190563;23;20139;-79
2023/12/10 06:28:55;;;;;;;35.13;5.68;;;7.60;99.90;;;;;;6190528;23;20048;-79
2023/12/10 06:31:21;;;;;;;29.83;5.22;;;7.60;99.90;;;;;;6190380;23;20021;-79
2023/12/10 06:33:47;;;;;;;23.55;4.40;;;7.60;99.90;;;;;;6190071;23;20348;-79
2023/12/10 06:36:13;;;;;;;31.73;4.03;;;7.60;99.90;;;;;;6190393;23;20466;-79
2023/12/10 06:38:38;;;;;;;24.48;4.88;;;7.60;99.90;;;;;;6190386;23;20017;-79
2023/12/10 06:41:05;;;;;;;33.13;5.03;;;7.50;99.90;;;;;;6217076;23;20024;-79
2023/12/10 06:43:31;;;;;;;28.13;4.20;;;7.50;99.90;;;;;;6190553;23;20017;-79
2023/12/10 06:45:58;;;;;;;25.45;5.00;;;7.60;99.90;;;;;;6190253;23;20052;-79
2023/12/10 06:48:25;;;;;;;27.55;4.53;;;7.60;99.90;;;;;;6190343;23;20444;-79
2023/12/10 06:50:51;;;;;;;28.60;4.60;;;7.50;99.90;;;;;;6217175;23;20016;-79
2023/12/10 06:53:17;;;;;;;36.05;4.90;;;7.50;99.90;;;;;;6190253;23;20034;-79
2023/12/10 06:55:42;;;;;;;31.65;4.78;;;7.60;99.90;;;;;;6190336;23;20496;-79
2023/12/10 06:58:08;;;;;;;35.20;5.47;;;7.50;99.90;;;;;;6190243;23;20013;-79
2023/12/10 07:00:34;;;;;;;26.58;4.88;;;7.60;99.90;;;;;;6190259;23;20025;-79
2023/12/10 07:02:59;;;;;;;22.02;5.72;;;7.60;99.90;;;;;;6190075;23;20444;-79
2023/12/10 07:05:25;;;;;;;32.03;4.82;;;7.60;99.90;;;;;;6190182;23;20083;-79
2023/12/10 07:07:50;;;;;;;30.42;5.50;;;7.60;99.90;;;;;;6216720;23;20404;-79
2023/12/10 07:10:16;;;;;;;25.20;4.45;;;7.60;99.90;;;;;;6216949;23;20088;-79
2023/12/10 07:12:42;;;;;;;40.00;5.13;;;7.60;99.90;;;;;;6190026;23;20025;-79
2023/12/10 07:15:08;;;;;;;34.60;6.07;;;7.60;99.90;;;;;;6190124;23;20017;-79
2023/12/10 07:17:35;;;;;;;27.00;4.60;;;7.60;99.90;;;;;;6190019;23;20020;-79
2023/12/10 07:20:01;;;;;;;33.95;4.40;;;7.70;99.90;;;;;;6190108;23;20023;-79
2023/12/10 07:22:26;;;;;;;33.58;5.80;;;7.60;99.90;;;;;;6189805;23;20095;-79
2023/12/10 07:24:52;;;;;;;32.75;5.00;;;7.70;99.90;;;;;;6189982;23;20025;-79
2023/12/10 07:27:18;;;;;;;32.97;4.30;;;7.70;99.90;;;;;;6190026;23;20024;-79
2023/12/10 07:29:43;;;;;;;36.25;5.72;;;7.70;99.90;;;;;;6189957;23;20459;-79
2023/12/10 07:32:09;;;;;;;27.95;5.13;;;7.60;99.90;;;;;;6189799;23;20019;-78
2023/12/10 07:34:34;;;;;;;38.85;4.95;;;7.60;99.90;;;;;;6190506;23;20017;-79
2023/12/10 07:37:00;;;;;;;36.53;6.22;;;7.70;99.90;;;;;;6216753;23;20079;-79
2023/12/10 07:39:25;;;;;;;34.00;5.78;;;7.70;99.90;;;;;;6216900;23;20008;-78
2023/12/10 07:41:51;;;;;;;37.15;6.70;;;7.70;99.90;;;;;;6216215;23;20028;-79
2023/12/10 07:44:17;;;;;;;32.88;6.05;;;7.70;99.90;;;;;;6189750;23;20017;-80
2023/12/10 07:46:43;;;;;;;38.00;5.63;;;7.70;99.90;;;;;;6189880;23;20020;-80
2023/12/10 07:49:08;;;;;;;29.55;4.18;;;7.70;99.90;;;;;;6216996;23;20012;-80
2023/12/10 07:51:34;;;;;;;22.10;3.58;;;7.70;99.90;;;;;;6244810;23;20024;-80
2023/12/10 07:53:59;;;;;;;22.35;3.45;;;7.70;99.90;;;;;;6244799;23;20035;-80
2023/12/10 07:56:27;;;;;;;22.25;3.10;;;7.70;99.90;;;;;;6245011;23;20051;-80
2023/12/10 07:58:52;;;;;;;21.60;3.00;;;7.80;99.90;;;;;;6245031;23;20062;-80
2023/12/10 08:01:18;;;;;;;24.02;3.75;;;7.80;99.90;;;;;;6244858;23;20013;-80
2023/12/10 08:03:44;;;;;;;20.80;3.42;;;7.80;99.90;;;;;;6246853;22;20020;-79
2023/12/10 08:06:09;;;;;;;27.10;3.65;;;7.80;99.90;;;;;;6244918;23;20023;-80
2023/12/10 08:08:35;;;;;;;24.83;3.42;;;7.80;99.90;;;;;;6244865;23;20022;-79
2023/12/10 08:11:03;;;;;;;22.30;3.75;;;7.70;99.90;;;;;;6244843;23;20095;-78
2023/12/10 08:13:29;;;;;;;21.00;3.47;;;7.70;99.90;;;;;;6244796;23;20385;-79
2023/12/10 08:15:54;;;;;;;27.15;3.00;;;7.80;99.90;;;;;;6244894;23;20023;-80
2023/12/10 08:18:20;;;;;;;17.35;2.92;;;7.80;99.90;;;;;;6244270;23;20020;-79
2023/12/10 08:20:46;;;;;;;17.52;2.30;;;7.80;99.90;;;;;;6244183;23;20023;-80
2023/12/10 08:23:11;;;;;;;19.80;2.45;;;7.80;99.90;;;;;;6244561;23;20017;-79
2023/12/10 08:25:39;;;;;;;17.58;3.42;;;7.90;99.90;;;;;;6244908;23;20020;-78
2023/12/10 08:28:05;;;;;;;22.75;3.63;;;7.90;99.90;;;;;;6244353;23;20519;-79
2023/12/10 08:30:30;;;;;;;24.50;3.22;;;7.90;99.90;;;;;;6244539;23;20047;-80
2023/12/10 08:32:56;;;;;;;24.58;4.43;;;7.80;99.90;;;;;;6244450;23;20016;-81
2023/12/10 08:35:22;;;;;;;23.83;3.50;;;7.80;99.90;;;;;;6244361;23;20137;-80
2023/12/10 08:37:47;;;;;;;21.67;3.10;;;7.80;99.90;;;;;;6244395;23;20344;-80
2023/12/10 08:40:14;;;;;;;22.65;3.60;;;7.80;99.90;;;;;;6244429;23;20016;-81
2023/12/10 08:42:40;;;;;;;24.38;3.72;;;7.80;99.90;;;;;;6246020;22;20031;-80
2023/12/10 08:45:07;;;;;;;19.98;2.38;;;7.70;99.90;;;;;;6244431;23;20464;-81
2023/12/10 08:47:33;;;;;;;20.08;3.38;;;7.70;99.90;;;;;;6244402;23;20083;-81
2023/12/10 08:50:00;;;;;;;23.80;3.45;;;7.70;99.90;;;;;;6244272;23;20345;-80
2023/12/10 08:52:27;;;;;;;33.15;4.15;;;7.80;99.90;;;;;;6244737;23;20035;-80
2023/12/10 08:54:52;;;;;;;27.27;4.15;;;7.70;99.90;;;;;;6244484;23;20352;-80
2023/12/10 08:57:20;;;;;;;29.77;3.63;;;7.70;99.90;;;;;;6246336;23;20426;-81
2023/12/10 08:59:46;;;;;;;27.00;3.83;;;7.70;99.90;;;;;;6246529;23;20092;-80
2023/12/10 09:02:12;;;;;;;26.65;3.10;;;7.80;99.90;;;;;;6246512;23;20051;-80
2023/12/10 09:04:37;;;;;;;27.42;4.05;;;7.70;99.90;;;;;;6246497;23;20040;-80
2023/12/10 09:07:03;;;;;;;22.50;4.60;;;7.80;99.90;;;;;;6246357;23;20020;-81
2023/12/10 09:09:29;;;;;;;26.40;3.67;;;7.70;99.90;;;;;;6246354;23;20020;-80
2023/12/10 09:11:54;;;;;;;26.08;3.70;;;7.80;99.90;;;;;;6246010;23;20024;-81
2023/12/10 09:14:21;;;;;;;24.90;3.53;;;7.70;99.90;;;;;;6246428;23;20012;-81
2023/12/10 09:16:47;;;;;;;32.67;4.13;;;7.70;99.90;;;;;;6246214;23;20016;-82
2023/12/10 09:19:14;;;;;;;26.17;3.47;;;7.70;99.90;;;;;;6246281;23;20093;-81
2023/12/10 09:21:39;;;;;;;16.98;3.47;;;7.70;99.90;;;;;;6246558;23;20027;-81
2023/12/10 09:24:06;;;;;;;28.25;4.97;;;7.70;99.90;;;;;;6246671;23;20016;-80
2023/12/10 09:26:32;;;;;;;25.88;3.70;;;7.70;99.90;;;;;;6248043;22;20081;-80
2023/12/10 09:28:57;;;;;;;24.13;3.72;;;7.70;99.90;;;;;;6246289;23;20344;-81
2023/12/10 09:31:23;;;;;;;22.38;3.17;;;7.80;99.90;;;;;;6247967;22;20043;-81
2023/12/10 09:33:49;;;;;;;23.83;3.58;;;7.70;99.90;;;;;;6246205;23;20095;-81
2023/12/10 09:36:16;;;;;;;23.73;3.45;;;7.70;99.90;;;;;;6246168;23;20020;-81
2023/12/10 09:38:42;;;;;;;26.73;4.63;;;7.70;99.90;;;;;;6247963;23;20009;-81
2023/12/10 09:41:08;;;;;;;20.30;3.58;;;7.70;99.90;;;;;;6246445;23;20022;-81
2023/12/10 09:43:33;;;;;;;28.83;3.55;;;7.70;99.90;;;;;;6246018;23;20028;-82
2023/12/10 09:46:01;;;;;;;23.45;3.17;;;7.70;99.90;;;;;;6246068;23;20016;-81
2023/12/10 09:48:29;;;;;;;21.95;3.42;;;7.80;99.90;;;;;;6245559;23;20456;-81
2023/12/10 09:50:55;;;;;;;28.02;4.25;;;7.80;99.90;;;;;;6245914;23;20048;-81
2023/12/10 09:53:21;;;;;;;22.52;4.03;;;7.80;99.90;;;;;;6245675;23;20023;-80
2023/12/10 09:55:48;;;;;;;18.73;4.45;;;7.70;99.90;;;;;;6245976;23;20333;-81
2023/12/10 09:58:13;;;;;;;27.17;4.50;;;7.70;99.90;;;;;;6245765;23;20479;-81
2023/12/10 10:00:40;;;;;;;26.83;4.32;;;7.70;99.90;;;;;;6245764;23;20016;-81
2023/12/10 10:03:06;;;;;;;27.02;3.25;;;7.70;99.90;;;;;;6245587;23;20452;-80
2023/12/10 10:05:33;;;;;;;25.17;4.05;;;7.70;99.90;;;;;;6245974;23;20110;-80
2023/12/10 10:07:59;;;;;;;22.25;3.80;;;7.80;99.90;;;;;;6245094;23;20016;-80
2023/12/10 10:10:25;;;;;;;20.10;2.80;;;7.70;99.90;;;;;;6245897;23;20012;-80
2023/12/10 10:12:54;;;;;;;24.95;3.13;;;7.80;99.90;;;;;;6245652;23;20074;-80
2023/12/10 10:15:30;;;;;;;17.70;3.30;;;7.80;99.90;;;;;;6247362;22;20016;-80
2023/12/10 10:17:57;;;;;;;23.42;3.60;;;7.80;99.90;;;;;;6245730;23;20012;-80
2023/12/10 10:20:24;;;;;;;23.88;3.38;;;7.80;99.90;;;;;;6245730;23;20024;-81
2023/12/10 10:22:50;;;;;;;28.42;4.35;;;7.80;99.90;;;;;;6247692;22;20035;-80
2023/12/10 10:25:17;;;;;;;24.08;3.65;;;7.70;99.90;;;;;;6245716;23;20012;-80
2023/12/10 10:27:43;;;;;;;29.33;3.42;;;7.70;99.90;;;;;;6245692;23;20474;-84
2023/12/10 10:30:08;;;;;;;25.77;4.53;;;7.80;99.90;;;;;;6245602;23;20091;-80
2023/12/10 10:32:34;;;;;;;22.83;3.88;;;7.80;99.90;;;;;;6247089;22;20024;-80
2023/12/10 10:35:03;;;;;;;27.52;2.95;;;7.80;99.90;;;;;;6245467;23;20020;-80
2023/12/10 10:37:29;;;;;;;19.58;3.05;;;7.80;99.90;;;;;;6245581;23;20020;-80
2023/12/10 10:39:57;;;;;;;22.75;3.80;;;7.80;99.90;;;;;;6245444;23;20016;-80
2023/12/10 10:42:22;;;;;;;23.02;3.30;;;7.80;99.90;;;;;;6245460;23;20056;-80
2023/12/10 10:44:48;;;;;;;21.80;4.15;;;7.80;99.90;;;;;;6245418;23;20016;-80
2023/12/10 10:47:18;;;;;;;23.35;3.78;;;7.90;99.90;;;;;;6245343;23;20024;-81
2023/12/10 10:49:57;;;;;;;20.17;3.20;;;7.80;99.90;;;;;;6245058;23;20055;-81
2023/12/10 10:52:29;;;;;;;19.25;2.95;;;7.90;99.90;;;;;;6245390;23;20020;-81
2023/12/10 10:54:55;;;;;;;17.27;3.70;;;7.90;99.90;;;;;;6245270;23;20013;-81
2023/12/10 10:57:34;;;;;;;20.58;2.90;;;8.00;99.90;;;;;;6245454;23;20020;-82
2023/12/10 10:59:59;;;;;;;23.23;3.30;;;8.10;99.90;;;;;;6245272;23;20017;-79
2023/12/10 11:02:25;;;;;;;28.70;4.65;;;8.20;99.90;;;;;;6245256;23;20027;-79
2023/12/10 11:04:51;;;;;;;31.35;4.75;;;8.30;99.90;;;;;;6245222;23;20012;-81
2023/12/10 11:07:20;;;;;;;36.92;5.38;;;8.30;99.90;;;;;;6245275;23;20448;-81
2023/12/10 11:09:58;;;;;;;28.42;5.15;;;8.40;99.90;;;;;;6245270;23;20016;-81
2023/12/10 11:12:39;;;;;;;31.13;4.95;;;8.30;99.90;;;;;;6245069;23;20070;-81
2023/12/10 11:15:21;;;;;;;36.72;5.72;;;8.30;99.90;;;;;;6245124;23;20020;-81
2023/12/10 11:17:58;;;;;;;34.60;5.07;;;8.30;99.90;;;;;;6245081;23;20059;-81
2023/12/10 11:20:43;;;;;;;37.55;4.85;;;8.40;99.90;;;;;;6244938;23;20027;-82
2023/12/10 11:23:13;;;;;;;29.70;4.93;;;8.30;99.90;;;;;;6245091;23;20047;-80
2023/12/10 11:25:40;;;;;;;36.55;5.57;;;8.40;99.90;;;;;;6245018;23;20467;-80
2023/12/10 11:28:11;;;;;;;26.45;4.00;;;8.40;99.90;;;;;;6245063;23;20027;-81
2023/12/10 11:30:40;;;;;;;25.83;5.13;;;8.30;99.90;;;;;;6245041;23;20016;-81
2023/12/10 11:33:07;;;;;;;32.28;3.97;;;8.30;99.90;;;;;;6244878;23;20020;-81
2023/12/10 11:35:33;;;;;;;39.92;4.90;;;8.30;99.90;;;;;;6244893;23;20066;-81
2023/12/10 11:37:59;;;;;;;24.98;4.53;;;8.30;99.90;;;;;;6245359;23;20016;-81
2023/12/10 11:40:25;;;;;;;31.58;4.80;;;8.30;99.90;;;;;;6244861;23;20023;-80
2023/12/10 11:42:51;;;;;;;28.33;5.25;;;8.40;99.90;;;;;;6244874;23;20020;-81
2023/12/10 11:45:17;;;;;;;28.48;5.35;;;8.40;99.90;;;;;;6246360;23;20027;-80
2023/12/10 11:47:43;;;;;;;35.10;4.22;;;8.50;99.90;;;;;;6244610;23;20031;-81
2023/12/10 11:50:11;;;;;;;31.48;4.10;;;8.50;99.90;;;;;;6244639;23;20064;-81
2023/12/10 11:52:37;;;;;;;33.30;5.85;;;8.50;99.90;;;;;;6245130;23;20078;-80
2023/12/10 11:55:05;;;;;;;27.92;4.95;;;8.60;99.90;;;;;;6246649;22;20016;-80
2023/12/10 11:57:31;;;;;;;28.75;6.53;;;8.60;99.90;;;;;;6244745;23;20051;-80
2023/12/10 11:59:56;;;;;;;23.83;4.70;;;8.50;99.90;;;;;;6244688;23;20023;-81
2023/12/10 12:02:23;;;;;;;32.95;7.00;;;8.50;99.90;;;;;;6246166;23;20551;-81
2023/12/10 12:04:52;;;;;;;24.55;4.68;;;8.50;99.90;;;;;;6244503;23;20027;-81
2023/12/10 12:07:28;;;;;;;31.23;5.65;;;8.40;99.90;;;;;;6244535;23;20089;-81
2023/12/10 12:09:55;;;;;;;28.55;4.82;;;8.50;99.90;;;;;;6244686;23;20031;-81
2023/12/10 12:12:22;;;;;;;26.73;3.70;;;8.40;99.90;;;;;;6244536;23;20016;-81
2023/12/10 12:14:48;;;;;;;23.38;3.80;;;8.30;99.90;;;;;;6244590;23;20463;-81
2023/12/10 12:17:17;;;;;;;35.63;5.25;;;8.30;99.90;;;;;;6244529;23;20047;-82
2023/12/10 12:19:43;;;;;;;31.05;5.90;;;8.30;99.90;;;;;;6244582;23;20012;-80
2023/12/10 12:22:10;;;;;;;27.92;5.32;;;8.30;99.90;;;;;;6244606;23;20078;-80
2023/12/10 12:24:35;;;;;;;32.78;5.30;;;8.30;99.90;;;;;;6244595;23;20022;-80
2023/12/10 12:27:01;;;;;;;27.63;4.82;;;8.30;99.90;;;;;;6244456;23;20102;-80
2023/12/10 12:29:27;;;;;;;36.17;6.88;;;8.30;99.90;;;;;;6244371;23;20074;-79
2023/12/10 12:31:53;;;;;;;27.17;4.57;;;8.30;99.90;;;;;;6244116;23;20040;-80
2023/12/10 12:34:18;;;;;;;38.00;6.53;;;8.40;99.90;;;;;;6246366;22;20016;-80
2023/12/10 12:36:45;;;;;;;29.90;5.30;;;8.40;99.90;;;;;;6244481;23;20330;-80
2023/12/10 12:39:10;;;;;;;39.58;5.55;;;8.40;99.90;;;;;;6244543;23;20019;-80
2023/12/10 12:41:36;;;;;;;40.45;5.88;;;8.50;99.90;;;;;;6244830;23;20044;-79
2023/12/10 12:44:02;;;;;;;32.15;5.80;;;8.50;99.90;;;;;;6246191;23;20423;-79